Time;durP1;ratioP1;P1;durP2;ratioP2;P2;SDS_P1;SDS_P2;PMS_P1;PMS_P2;Temp;Humidity;BMP_temperature;BMP_pressure;BME280_temperature;BME280_humidity;BME280_pressure;Samples;Min_cycle;Max_cycle;Signal;HPM_P1;HPM_P2
2022/10/09 00:05:05;;;;;;;1.00;0.57;;;;;;;19.12;42.57;102475.75;16131323;19;130126;-44
2022/10/09 00:10:28;;;;;;;1.95;0.52;;;;;;;19.12;42.89;102472.97;16131825;19;129563;-48
2022/10/09 00:15:50;;;;;;;1.50;0.60;;;;;;;19.10;42.73;102469.56;16130676;19;128988;-46
2022/10/09 00:21:22;;;;;;;0.68;0.50;;;;;;;19.11;42.87;102468.50;16127650;19;130187;-45
2022/10/09 00:26:46;;;;;;;1.80;0.60;;;;;;;19.06;42.82;102461.69;16133129;19;130761;-49
2022/10/09 00:32:08;;;;;;;1.13;0.60;;;;;;;19.06;42.99;102466.38;16129733;19;129358;-45
2022/10/09 00:37:29;;;;;;;0.90;0.70;;;;;;;19.04;42.80;102455.50;16133304;19;129771;-45
2022/10/09 00:42:56;;;;;;;2.00;0.57;;;;;;;19.03;42.85;102462.09;16129702;19;129619;-44
2022/10/09 00:48:18;;;;;;;1.83;0.60;;;;;;;19.02;42.57;102463.16;16128533;19;129713;-46
2022/10/09 00:53:40;;;;;;;1.02;0.60;;;;;;;19.00;42.55;102462.50;16129246;19;130544;-47
2022/10/09 00:59:03;;;;;;;0.90;0.60;;;;;;;19.00;42.47;102461.69;16127746;19;130274;-46
2022/10/09 01:04:25;;;;;;;1.13;0.68;;;;;;;18.99;42.37;102454.41;16125909;19;130440;-45
2022/10/09 01:10:09;;;;;;;1.10;0.68;;;;;;;18.98;42.76;102445.22;16127248;19;129549;-50
2022/10/09 01:15:48;;;;;;;1.45;0.63;;;;;;;18.97;42.56;102451.00;16129023;19;130087;-45
2022/10/09 01:21:19;;;;;;;1.13;0.50;;;;;;;18.95;42.67;102456.78;16129507;19;129734;-48
2022/10/09 01:26:54;;;;;;;0.85;0.65;;;;;;;18.93;42.34;102445.03;16127502;19;129721;-46
2022/10/09 01:32:21;;;;;;;1.20;0.52;;;;;;;18.90;42.75;102434.34;16127246;19;129087;-44
2022/10/09 01:37:45;;;;;;;1.25;0.52;;;;;;;18.90;42.48;102437.13;16126974;19;129608;-46
2022/10/09 01:43:06;;;;;;;1.42;0.52;;;;;;;18.88;42.51;102425.38;16125930;19;129145;-44
2022/10/09 01:48:28;;;;;;;0.82;0.63;;;;;;;18.88;42.83;102419.84;16124126;19;131631;-44
2022/10/09 01:53:53;;;;;;;1.15;0.70;;;;;;;18.89;42.38;102421.53;16125263;19;129888;-47
2022/10/09 01:59:18;;;;;;;1.47;0.40;;;;;;;18.87;42.37;102404.25;16124342;19;129321;-45
2022/10/09 02:04:42;;;;;;;1.45;0.65;;;;;;;18.86;42.58;102410.88;16124156;19;129726;-46
2022/10/09 02:10:05;;;;;;;1.23;0.68;;;;;;;18.85;42.64;102409.16;16125938;19;130585;-48
2022/10/09 02:15:37;;;;;;;0.82;0.55;;;;;;;18.85;42.66;102400.84;16125910;19;129330;-44
2022/10/09 02:21:07;;;;;;;3.05;0.80;;;;;;;18.84;42.67;102410.22;16123904;19;130939;-44
2022/10/09 02:26:29;;;;;;;1.20;0.68;;;;;;;18.82;42.19;102387.44;16126099;19;129906;-46
2022/10/09 02:31:51;;;;;;;0.43;0.43;;;;;;;18.81;42.43;102388.50;16122244;19;129561;-44
2022/10/09 02:37:13;;;;;;;1.92;0.63;;;;;;;18.79;42.65;102380.38;16124131;19;129657;-45
2022/10/09 02:42:35;;;;;;;1.77;0.77;;;;;;;18.79;42.50;102382.28;16122560;19;130245;-46
2022/10/09 02:47:57;;;;;;;1.48;0.70;;;;;;;18.76;42.16;102376.09;16122210;19;129442;-44
2022/10/09 02:53:18;;;;;;;1.70;0.80;;;;;;;18.76;42.53;102373.34;16125237;19;131958;-44
2022/10/09 02:58:40;;;;;;;0.95;0.60;;;;;;;18.75;42.18;102382.72;16123204;19;129485;-44
2022/10/09 03:04:03;;;;;;;1.35;0.68;;;;;;;18.75;42.25;102377.16;16120976;19;129114;-46
2022/10/09 03:09:24;;;;;;;1.10;0.75;;;;;;;18.74;42.39;102378.22;16121287;19;129817;-47
2022/10/09 03:14:51;;;;;;;3.10;0.75;;;;;;;18.73;42.22;102370.13;16118659;19;129545;-44
2022/10/09 03:20:14;;;;;;;0.95;0.60;;;;;;;18.72;42.49;102382.28;16122708;19;134908;-50
2022/10/09 03:25:35;;;;;;;3.30;0.63;;;;;;;18.72;42.27;102374.81;16120582;19;129647;-45
2022/10/09 03:30:57;;;;;;;0.93;0.50;;;;;;;18.71;42.54;102378.66;16120812;19;129273;-44
2022/10/09 03:36:19;;;;;;;0.88;0.60;;;;;;;18.71;42.06;102375.03;16117873;19;130085;-47
2022/10/09 03:41:41;;;;;;;3.53;0.70;;;;;;;18.70;42.18;102374.19;16117839;19;129685;-44
2022/10/09 03:47:02;;;;;;;1.95;0.88;;;;;;;18.68;42.37;102365.22;16119187;19;130430;-45
2022/10/09 03:52:24;;;;;;;0.60;0.50;;;;;;;18.68;42.15;102369.91;16115972;19;130396;-48
2022/10/09 03:57:46;;;;;;;1.08;0.60;;;;;;;18.66;42.40;102370.13;16116935;19;129014;-43
2022/10/09 04:03:08;;;;;;;0.70;0.45;;;;;;;18.66;42.26;102372.91;16115103;19;129554;-45
2022/10/09 04:08:29;;;;;;;1.02;0.60;;;;;;;18.65;42.22;102365.66;16115220;19;129973;-47
2022/10/09 04:13:51;;;;;;;0.63;0.50;;;;;;;18.65;41.94;102364.78;16116475;19;129165;-46
2022/10/09 04:19:13;;;;;;;1.23;0.70;;;;;;;18.63;42.22;102362.22;16115577;19;129056;-48
2022/10/09 04:24:34;;;;;;;2.33;0.73;;;;;;;18.63;42.03;102350.31;16120555;19;130820;-45
2022/10/09 04:29:56;;;;;;;1.20;0.60;;;;;;;18.61;42.11;102351.34;16129413;19;130410;-45
2022/10/09 04:35:18;;;;;;;1.30;0.43;;;;;;;18.60;42.20;102351.56;16130711;19;132263;-44
2022/10/09 04:40:40;;;;;;;0.30;0.30;;;;;;;18.60;42.06;102346.00;16130933;19;129694;-45
2022/10/09 04:46:11;;;;;;;1.63;0.68;;;;;;;18.60;42.26;102343.25;16128523;19;129318;-44
2022/10/09 04:51:32;;;;;;;0.82;0.43;;;;;;;18.57;42.07;102338.13;16129591;19;129819;-45
2022/10/09 04:56:54;;;;;;;0.50;0.40;;;;;;;18.57;42.27;102335.38;16128769;19;130487;-46
2022/10/09 05:02:16;;;;;;;1.02;0.60;;;;;;;18.56;41.92;102322.56;16126005;19;129572;-43
2022/10/09 05:07:38;;;;;;;0.95;0.50;;;;;;;18.55;41.89;102318.94;16130319;19;129030;-45
2022/10/09 05:12:59;;;;;;;0.70;0.60;;;;;;;18.54;41.82;102320.00;16129129;19;129436;-45
2022/10/09 05:18:21;;;;;;;0.60;0.40;;;;;;;18.53;41.87;102323.81;16130511;19;130946;-44
2022/10/09 05:23:43;;;;;;;3.67;0.73;;;;;;;18.52;42.10;102310.19;16123586;19;129293;-46
2022/10/09 05:29:05;;;;;;;1.30;0.93;;;;;;;18.53;42.22;102311.91;16124469;19;129620;-47
2022/10/09 05:34:27;;;;;;;3.13;0.73;;;;;;;18.52;41.84;102311.06;16123106;19;129356;-44
2022/10/09 05:39:49;;;;;;;2.65;0.60;;;;;;;18.51;41.79;102314.03;16124095;19;129395;-49
2022/10/09 05:45:10;;;;;;;3.45;0.60;;;;;;;18.50;41.66;102301.22;16126312;19;129299;-44
2022/10/09 05:50:32;;;;;;;3.67;1.05;;;;;;;18.60;41.54;102302.53;16127451;19;129724;-45
2022/10/09 05:55:54;;;;;;;1.73;0.85;;;;;;;18.76;41.03;102305.94;16128495;19;129417;-46
2022/10/09 06:01:16;;;;;;;3.85;1.10;;;;;;;18.87;41.06;102305.31;16126864;19;129336;-48
2022/10/09 06:06:38;;;;;;;4.25;0.82;;;;;;;18.91;40.98;102302.94;16126063;19;129507;-46
2022/10/09 06:12:00;;;;;;;2.13;0.90;;;;;;;18.94;40.87;102302.53;16126340;19;129882;-45
2022/10/09 06:17:22;;;;;;;1.80;0.77;;;;;;;18.96;41.01;102303.13;16127363;19;128966;-42
2022/10/09 06:22:43;;;;;;;3.17;0.77;;;;;;;18.99;40.78;102305.50;16124196;19;129254;-44
2022/10/09 06:28:05;;;;;;;2.17;1.02;;;;;;;19.02;40.74;102315.28;16126770;19;130174;-45
2022/10/09 06:33:35;;;;;;;1.77;0.80;;;;;;;19.06;40.90;102311.91;16123939;19;129473;-44
2022/10/09 06:39:02;;;;;;;6.18;0.90;;;;;;;19.11;40.59;102319.56;16126635;19;129718;-46
2022/10/09 06:44:24;;;;;;;2.38;1.02;;;;;;;19.12;40.89;102315.72;16118883;19;129580;-44
2022/10/09 06:49:46;;;;;;;2.90;0.80;;;;;;;19.15;40.63;102312.50;16118635;19;129352;-46
2022/10/09 06:55:08;;;;;;;2.88;0.98;;;;;;;19.18;40.95;102314.00;16119273;19;130295;-44
2022/10/09 07:00:30;;;;;;;1.95;0.85;;;;;;;19.19;40.99;102311.00;16119812;19;129338;-44
2022/10/09 07:05:53;;;;;;;1.63;0.93;;;;;;;19.21;40.84;102310.81;16120834;19;129267;-44
2022/10/09 07:11:21;;;;;;;2.20;1.10;;;;;;;19.27;40.57;102304.41;16119033;19;130187;-46
2022/10/09 07:16:46;;;;;;;1.65;1.00;;;;;;;19.63;40.30;102299.41;16119159;19;129742;-45
2022/10/09 07:22:10;;;;;;;1.42;0.90;;;;;;;20.55;39.50;102292.66;16118687;19;129128;-50
2022/10/09 07:27:32;;;;;;;2.50;0.88;;;;;;;21.46;37.65;102306.16;16119208;19;129674;-49
2022/10/09 07:32:53;;;;;;;4.70;1.15;;;;;;;21.91;37.15;102291.91;16119029;19;130683;-46
2022/10/09 07:38:16;;;;;;;2.65;0.98;;;;;;;22.47;36.06;102302.03;16121139;19;129558;-47
2022/10/09 07:43:39;;;;;;;2.88;1.00;;;;;;;22.92;35.11;102301.50;16120664;19;129512;-49
2022/10/09 07:49:01;;;;;;;2.38;1.02;;;;;;;23.45;34.30;102296.00;16116453;19;129854;-47
2022/10/09 07:54:26;;;;;;;2.00;0.90;;;;;;;24.05;33.43;102288.28;16116254;19;130851;-47
2022/10/09 07:59:48;;;;;;;3.27;1.00;;;;;;;24.49;32.85;102288.56;16121995;19;129640;-47
2022/10/09 08:05:09;;;;;;;3.15;1.10;;;;;;;24.87;32.05;102286.91;16133358;19;129424;-48
2022/10/09 08:10:31;;;;;;;4.05;1.10;;;;;;;24.63;31.95;102280.66;16136539;19;129384;-47
2022/10/09 08:15:57;;;;;;;2.05;0.90;;;;;;;23.74;32.96;102279.31;16138723;19;133490;-45
2022/10/09 08:21:19;;;;;;;2.75;1.15;;;;;;;22.85;33.66;102282.06;16137330;19;128936;-50
2022/10/09 08:26:41;;;;;;;3.22;1.15;;;;;;;22.12;34.84;102275.72;16131725;19;129903;-47
2022/10/09 08:32:03;;;;;;;1.63;1.10;;;;;;;21.55;35.89;102263.03;16133695;19;129842;-50
2022/10/09 08:37:25;;;;;;;2.63;1.10;;;;;;;21.12;36.66;102272.25;16133028;19;129174;-46
2022/10/09 08:42:54;;;;;;;2.35;1.08;;;;;;;20.79;37.22;102271.53;16129982;19;129329;-51
2022/10/09 08:48:22;;;;;;;2.53;1.25;;;;;;;20.53;37.70;102264.25;16132525;19;129495;-47
2022/10/09 08:54:14;;;;;;;4.35;1.30;;;;;;;20.33;38.50;102265.25;16131825;19;129479;-46
2022/10/09 08:59:35;;;;;;;5.82;0.98;;;;;;;20.15;38.86;102246.59;16122123;19;129550;-50
2022/10/09 09:05:07;;;;;;;2.50;1.00;;;;;;;20.02;38.81;102243.91;16120535;19;129840;-46
2022/10/09 09:10:45;;;;;;;2.53;1.15;;;;;;;19.93;39.41;102246.91;16110488;19;129900;-48
2022/10/09 09:16:44;;;;;;;1.52;1.00;;;;;;;19.82;39.89;102230.94;16117764;19;129811;-45
2022/10/09 09:22:12;;;;;;;3.03;1.27;;;;;;;19.69;39.58;102224.38;16118784;19;129782;-46
2022/10/09 09:27:36;;;;;;;4.88;1.38;;;;;;;19.62;40.09;102217.19;16119557;19;130279;-48
2022/10/09 09:33:14;;;;;;;3.83;1.27;;;;;;;19.57;39.81;102206.72;16118218;19;130837;-49
2022/10/09 09:38:36;;;;;;;4.68;1.55;;;;;;;19.50;40.15;102206.78;16129392;19;129487;-45
2022/10/09 09:44:18;;;;;;;4.80;1.95;;;;;;;19.44;40.02;102196.56;16127867;19;129606;-49
2022/10/09 09:49:53;;;;;;;7.70;1.90;;;;;;;19.42;40.35;102189.53;16129668;19;130549;-47
2022/10/09 09:55:34;;;;;;;4.50;1.58;;;;;;;19.38;40.09;102187.19;16126413;19;129968;-46
2022/10/09 10:01:00;;;;;;;4.05;1.75;;;;;;;19.31;39.89;102175.28;16127953;19;129731;-49
2022/10/09 10:06:30;;;;;;;7.18;2.25;;;;;;;19.29;39.96;102173.78;16125601;19;129782;-47
2022/10/09 10:11:55;;;;;;;25.83;2.67;;;;;;;19.26;40.15;102163.97;16126728;19;130478;-45
2022/10/09 10:17:27;;;;;;;30.37;2.83;;;;;;;19.24;39.79;102152.25;16124680;19;129605;-44
2022/10/09 10:22:54;;;;;;;17.83;2.40;;;;;;;19.19;39.68;102150.09;16122082;19;130703;-46
2022/10/09 10:28:25;;;;;;;13.48;2.60;;;;;;;19.17;39.95;102145.84;16123691;19;130862;-46
2022/10/09 10:33:54;;;;;;;20.90;3.92;;;;;;;19.15;39.94;102136.91;16124349;19;129788;-48
2022/10/09 10:39:39;;;;;;;21.98;3.65;;;;;;;19.14;39.77;102133.25;16117778;19;129838;-46
2022/10/09 10:45:18;;;;;;;19.10;4.35;;;;;;;19.12;39.95;102126.25;16113692;19;130161;-48
2022/10/09 10:50:54;;;;;;;21.98;5.25;;;;;;;19.11;40.22;102116.22;16120925;19;129450;-46
2022/10/09 10:56:28;;;;;;;20.58;4.13;;;;;;;19.09;40.10;102105.34;16120224;19;129409;-45
2022/10/09 11:02:01;;;;;;;25.13;4.65;;;;;;;19.08;39.83;102101.72;16122942;19;129863;-44
2022/10/09 11:07:47;;;;;;;18.83;4.40;;;;;;;19.06;39.96;102090.00;16119131;19;130529;-44
2022/10/09 11:13:24;;;;;;;16.33;4.53;;;;;;;19.06;40.03;102084.47;16121448;19;129981;-48
2022/10/09 11:18:51;;;;;;;18.05;4.05;;;;;;;19.04;40.21;102069.09;16117259;19;129464;-47
2022/10/09 11:24:37;;;;;;;17.58;3.70;;;;;;;19.04;40.11;102063.53;16118370;19;133938;-47
2022/10/09 11:30:03;;;;;;;11.33;3.63;;;;;;;19.00;40.01;102052.06;16122039;19;129281;-45
2022/10/09 11:35:35;;;;;;;11.13;2.92;;;;;;;19.02;40.08;102044.38;16130325;19;129322;-46
2022/10/09 11:40:58;;;;;;;10.35;3.13;;;;;;;19.02;40.21;102040.72;16135815;19;129422;-47
2022/10/09 11:46:48;;;;;;;11.32;3.08;;;;;;;19.01;39.77;102026.03;16134112;19;129348;-46
2022/10/09 11:52:35;;;;;;;8.75;2.80;;;;;;;19.01;39.92;102019.63;16132772;19;130442;-45
2022/10/09 11:58:18;;;;;;;9.05;2.53;;;;;;;18.99;40.13;102005.97;16134269;19;130423;-44
2022/10/09 12:03:40;;;;;;;11.10;2.90;;;;;;;18.98;40.14;101998.72;16134570;19;129397;-47
2022/10/09 12:09:06;;;;;;;9.02;2.28;;;;;;;18.97;40.01;101994.25;16134904;19;129577;-47
2022/10/09 12:14:29;;;;;;;10.65;2.60;;;;;;;18.97;39.75;101974.84;16132719;19;130605;-49
2022/10/09 12:19:54;;;;;;;11.27;2.25;;;;;;;18.97;39.99;101963.75;16135008;19;129383;-50
2022/10/09 12:25:29;;;;;;;7.75;2.05;;;;;;;18.97;40.14;101949.88;16133781;19;130072;-48
2022/10/09 12:30:51;;;;;;;8.38;2.58;;;;;;;18.97;39.81;101946.28;16132800;19;129688;-46
2022/10/09 12:36:21;;;;;;;8.20;1.95;;;;;;;18.96;39.73;101934.31;16130634;19;133933;-48
2022/10/09 12:41:45;;;;;;;7.82;2.33;;;;;;;18.95;39.67;101916.00;16132508;19;129309;-50
2022/10/09 12:47:16;;;;;;;5.88;2.00;;;;;;;18.95;40.04;101916.00;16125834;19;129360;-49
2022/10/09 12:52:48;;;;;;;6.88;2.05;;;;;;;18.97;39.73;101901.91;16130585;19;129627;-47
2022/10/09 12:58:17;;;;;;;9.25;2.00;;;;;;;18.96;39.76;101889.09;16127344;19;129824;-47
2022/10/09 13:03:55;;;;;;;8.45;2.28;;;;;;;18.96;39.95;101878.03;16127126;19;129481;-45
2022/10/09 13:09:31;;;;;;;6.38;2.03;;;;;;;18.96;40.19;101872.47;16128582;19;129989;-46
2022/10/09 13:15:00;;;;;;;7.55;2.13;;;;;;;18.95;40.09;101859.69;16129267;19;132098;-45
2022/10/09 13:20:26;;;;;;;7.53;1.65;;;;;;;18.94;39.90;101846.88;16126998;19;129657;-45
2022/10/09 13:25:48;;;;;;;4.65;1.52;;;;;;;18.95;39.51;101855.00;16128692;19;129553;-48
2022/10/09 13:31:10;;;;;;;5.38;1.58;;;;;;;18.93;39.84;101832.19;16127537;19;129366;-45
2022/10/09 13:36:32;;;;;;;7.65;1.70;;;;;;;;;;16123514;19;129540;-46
2022/10/09 13:41:56;;;;;;;6.47;1.77;;;;;;;18.91;39.97;101812.16;16125140;19;129710;-51
2022/10/09 13:47:18;;;;;;;7.88;1.40;;;;;;;18.93;39.46;101807.22;16125681;19;129520;-48
2022/10/09 13:52:45;;;;;;;6.50;1.55;;;;;;;18.95;39.65;101802.31;16116499;19;131108;-53
2022/10/09 13:58:07;;;;;;;3.28;1.52;;;;;;;18.93;39.50;101793.38;16116214;19;129631;-49
2022/10/09 14:03:28;;;;;;;5.55;1.40;;;;;;;;;;16117432;19;130872;-49
2022/10/09 14:08:51;;;;;;;6.22;1.67;;;;;;;18.90;39.50;101774.41;16115832;19;130132;-46
2022/10/09 14:14:13;;;;;;;4.75;1.30;;;;;;;18.93;39.91;101760.09;16124652;19;129843;-45
2022/10/09 14:19:35;;;;;;;3.95;0.93;;;;;;;18.94;39.11;101761.78;16124864;19;129375;-45
2022/10/09 14:24:57;;;;;;;4.53;1.33;;;;;;;18.93;39.68;101740.69;16124967;19;129865;-45
2022/10/09 14:30:18;;;;;;;5.40;1.17;;;;;;;18.93;39.44;101740.69;16120670;19;133786;-46
2022/10/09 14:35:40;;;;;;;6.15;1.58;;;;;;;18.94;39.38;101736.84;16123080;19;129539;-47
2022/10/09 14:41:02;;;;;;;6.60;1.48;;;;;;;18.94;39.05;101731.28;16123911;19;129517;-45
2022/10/09 14:46:26;;;;;;;4.13;1.45;;;;;;;18.94;39.09;101725.75;16125047;19;129630;-46
2022/10/09 14:51:47;;;;;;;4.15;1.23;;;;;;;18.92;39.36;101714.03;16122074;19;129807;-47
2022/10/09 14:57:09;;;;;;;2.67;1.20;;;;;;;18.90;38.91;101708.69;16122852;19;129577;-48
2022/10/09 15:02:31;;;;;;;4.95;1.30;;;;;;;18.89;39.22;101703.41;16123238;19;129988;-48
2022/10/09 15:07:52;;;;;;;2.83;1.20;;;;;;;18.90;38.72;101685.69;16121155;19;130215;-50
2022/10/09 15:13:14;;;;;;;2.53;1.00;;;;;;;18.90;39.18;101678.19;16123554;19;129719;-47
2022/10/09 15:18:36;;;;;;;3.92;1.30;;;;;;;;;;16126040;19;129724;-50
2022/10/09 15:24:00;;;;;;;3.85;0.98;;;;;;;18.91;38.56;101665.19;16124438;19;129201;-48
2022/10/09 15:29:21;;;;;;;3.47;1.15;;;;;;;18.90;39.27;101656.03;16120001;19;130001;-46
2022/10/09 15:34:43;;;;;;;7.70;1.58;;;;;;;18.90;38.85;101657.97;16121489;19;129624;-47
2022/10/09 15:40:05;;;;;;;3.53;1.30;;;;;;;18.89;38.51;101646.00;16120602;19;129623;-47
2022/10/09 15:45:27;;;;;;;3.30;1.38;;;;;;;18.89;38.64;101628.53;16120453;19;129737;-45
2022/10/09 15:50:52;;;;;;;3.22;1.20;;;;;;;18.88;38.77;101626.84;16122962;19;129402;-45
2022/10/09 15:56:21;;;;;;;3.10;1.10;;;;;;;18.86;38.79;101623.44;16122318;19;129899;-46
2022/10/09 16:01:43;;;;;;;3.33;1.23;;;;;;;18.86;38.71;101616.00;16120043;19;129577;-46
2022/10/09 16:07:04;;;;;;;1.88;1.08;;;;;;;18.87;38.69;101602.97;16121176;19;130457;-47
2022/10/09 16:12:26;;;;;;;3.38;1.08;;;;;;;18.88;38.80;101599.13;16117977;19;130030;-47
2022/10/09 16:17:49;;;;;;;3.22;1.08;;;;;;;18.87;38.76;101592.75;16116920;19;129956;-46
2022/10/09 16:23:13;;;;;;;3.15;1.08;;;;;;;18.87;38.90;101583.56;16133324;19;129085;-48
2022/10/09 16:28:34;;;;;;;3.78;1.15;;;;;;;18.84;38.94;101581.25;16133640;19;129598;-46
2022/10/09 16:33:57;;;;;;;1.85;0.90;;;;;;;18.84;39.00;101582.09;16131696;19;129728;-47
2022/10/09 16:39:22;;;;;;;2.70;0.93;;;;;;;18.77;39.51;101582.19;16130031;19;129449;-44
2022/10/09 16:44:44;;;;;;;3.63;1.30;;;;;;;18.79;39.54;101578.34;16129560;19;130053;-44
2022/10/09 16:50:06;;;;;;;2.05;0.85;;;;;;;18.75;39.30;101577.97;16131018;19;129366;-47
2022/10/09 16:55:28;;;;;;;2.22;0.80;;;;;;;18.75;39.25;101578.78;16129270;19;129937;-45
2022/10/09 17:00:49;;;;;;;4.30;1.25;;;;;;;18.73;38.96;101572.63;16130098;19;129352;-49
2022/10/09 17:06:22;;;;;;;3.40;1.15;;;;;;;18.74;39.23;101570.72;16130911;19;129499;-48
2022/10/09 17:11:44;;;;;;;5.43;1.50;;;;;;;18.71;39.36;101580.31;16131925;19;129821;-46
2022/10/09 17:17:08;;;;;;;2.72;0.93;;;;;;;18.69;39.30;101573.31;16128604;19;129435;-50
2022/10/09 17:22:29;;;;;;;3.70;1.10;;;;;;;18.66;39.50;101571.88;16130249;19;129332;-47
2022/10/09 17:27:51;;;;;;;2.50;0.90;;;;;;;18.64;39.56;101573.19;16129338;19;129425;-46
2022/10/09 17:33:13;;;;;;;5.80;0.80;;;;;;;18.63;39.46;101575.09;16123548;19;129008;-50
2022/10/09 17:38:40;;;;;;;4.80;1.15;;;;;;;18.62;39.63;101567.84;16124493;19;130669;-45
2022/10/09 17:44:02;;;;;;;5.00;1.30;;;;;;;18.63;39.45;101574.25;16125024;19;129620;-45
2022/10/09 17:49:24;;;;;;;8.45;3.22;;;;;;;18.60;39.53;101570.00;16120462;19;130289;-49
2022/10/09 17:54:46;;;;;;;13.48;3.90;;;;;;;18.68;39.61;101566.94;16126100;19;129650;-46
2022/10/09 18:00:09;;;;;;;12.40;3.70;;;;;;;18.81;39.50;101559.56;16124949;19;129310;-51
2022/10/09 18:05:31;;;;;;;23.27;4.03;;;;;;;18.90;39.54;101558.16;16124399;19;129717;-47
2022/10/09 18:11:08;;;;;;;13.40;3.45;;;;;;;18.97;39.32;101556.13;16126742;19;129481;-46
2022/10/09 18:16:35;;;;;;;8.68;3.35;;;;;;;18.97;39.58;101553.34;16124226;19;129386;-46
2022/10/09 18:21:57;;;;;;;12.43;3.33;;;;;;;19.00;39.30;101547.34;16123901;19;131252;-47
2022/10/09 18:27:19;;;;;;;11.88;2.85;;;;;;;19.01;39.26;101540.72;16120501;19;130491;-48
2022/10/09 18:32:41;;;;;;;10.50;3.22;;;;;;;19.03;39.67;101534.94;16122264;19;129934;-46
2022/10/09 18:38:04;;;;;;;10.98;2.97;;;;;;;19.02;39.65;101531.31;16121514;19;129955;-46
2022/10/09 18:43:25;;;;;;;18.20;5.53;;;;;;;19.01;39.50;101537.94;16118581;19;129661;-49
2022/10/09 18:48:48;;;;;;;16.15;5.65;;;;;;;19.02;39.98;101531.31;16117434;19;129532;-46
2022/10/09 18:54:10;;;;;;;21.75;10.85;;;;;;;19.04;40.01;101531.94;16122200;19;129753;-52
2022/10/09 18:59:39;;;;;;;20.15;10.85;;;;;;;19.12;40.03;101527.13;16121894;19;129636;-49
2022/10/09 19:05:00;;;;;;;28.35;11.82;;;;;;;19.31;39.63;101509.41;16119621;19;129443;-52
2022/10/09 19:10:22;;;;;;;21.65;11.43;;;;;;;19.56;39.70;101511.16;16117530;19;129449;-48
2022/10/09 19:15:52;;;;;;;33.05;11.13;;;;;;;19.76;39.40;101509.97;16120013;19;129480;-51
2022/10/09 19:21:14;;;;;;;19.90;11.10;;;;;;;19.80;39.79;101500.91;16118803;19;130642;-50
2022/10/09 19:26:36;;;;;;;26.83;11.32;;;;;;;19.80;39.90;101500.06;16122793;19;129432;-47
2022/10/09 19:31:57;;;;;;;20.13;10.88;;;;;;;19.80;39.96;101502.84;16121896;19;130363;-46
2022/10/09 19:37:19;;;;;;;19.98;10.90;;;;;;;19.76;39.94;101501.63;16118837;19;129455;-47
2022/10/09 19:42:44;;;;;;;21.80;10.77;;;;;;;19.72;40.16;101495.72;16120743;19;129629;-52
2022/10/09 19:48:06;;;;;;;26.60;10.88;;;;;;;19.70;39.99;101492.34;16116729;19;129678;-51
2022/10/09 19:53:27;;;;;;;26.70;10.75;;;;;;;19.64;40.07;101485.81;16120170;19;129653;-46
2022/10/09 19:58:49;;;;;;;24.17;12.10;;;;;;;19.59;40.15;101491.22;16134423;19;129999;-52
2022/10/09 20:04:11;;;;;;;27.90;14.23;;;;;;;19.58;40.47;101486.75;16131587;19;130363;-48
2022/10/09 20:09:33;;;;;;;23.17;12.40;;;;;;;19.57;40.25;101479.50;16132025;19;129520;-48
2022/10/09 20:14:55;;;;;;;20.83;11.15;;;;;;;19.56;40.48;101482.53;16131736;19;130078;-51
2022/10/09 20:20:16;;;;;;;21.17;11.65;;;;;;;19.51;40.34;101481.31;16128595;19;130456;-49
2022/10/09 20:25:38;;;;;;;20.55;10.93;;;;;;;19.47;40.42;101476.47;16131939;19;134139;-48
2022/10/09 20:31:07;;;;;;;23.45;11.38;;;;;;;19.40;40.27;101476.59;16131315;19;129643;-50
2022/10/09 20:36:34;;;;;;;21.05;10.80;;;;;;;19.36;40.79;101469.84;16129802;19;129335;-50
2022/10/09 20:41:56;;;;;;;23.77;10.55;;;;;;;19.32;40.74;101475.00;16133631;19;129698;-50
2022/10/09 20:47:17;;;;;;;17.05;10.20;;;;;;;19.31;40.49;101472.47;16130915;19;129794;-49
2022/10/09 20:52:39;;;;;;;18.63;10.77;;;;;;;19.26;40.63;101462.09;16130780;19;129618;-48
2022/10/09 20:58:02;;;;;;;24.50;10.55;;;;;;;19.28;40.77;101462.72;16126441;19;130657;-52
2022/10/09 21:03:23;;;;;;;25.67;10.82;;;;;;;19.29;41.49;101458.84;16127605;19;130258;-49
2022/10/09 21:08:45;;;;;;;20.55;9.45;;;;;;;19.34;41.50;101456.19;16126063;19;129727;-49
2022/10/09 21:14:08;;;;;;;20.52;10.18;;;;;;;19.37;41.74;101450.19;16127143;19;129719;-52
2022/10/09 21:19:30;;;;;;;15.43;9.25;;;;;;;19.38;41.64;101451.88;16129240;19;129871;-47
2022/10/09 21:24:52;;;;;;;20.45;9.23;;;;;;;19.44;42.17;101443.69;16126683;19;129350;-49
2022/10/09 21:30:14;;;;;;;19.17;8.70;;;;;;;19.49;41.80;101452.13;16125902;19;129945;-48
2022/10/09 21:35:45;;;;;;;11.73;7.88;;;;;;;19.56;42.05;101439.00;16129241;19;129391;-48
2022/10/09 21:41:06;;;;;;;14.18;7.43;;;;;;;19.58;41.79;101434.03;16127432;19;129752;-48
2022/10/09 21:46:29;;;;;;;19.20;8.23;;;;;;;19.58;41.89;101434.03;16125621;19;130957;-51
2022/10/09 21:51:51;;;;;;;16.88;8.75;;;;;;;19.61;41.96;101430.78;16127949;19;129723;-47
2022/10/09 21:57:13;;;;;;;17.35;8.00;;;;;;;19.59;41.81;101421.84;16130984;19;134168;-47
2022/10/09 22:02:35;;;;;;;19.10;8.02;;;;;;;19.55;41.79;101420.66;16127960;19;129401;-48
2022/10/09 22:07:57;;;;;;;13.65;6.95;;;;;;;19.51;41.88;101420.25;16126796;19;129864;-50
2022/10/09 22:13:20;;;;;;;11.45;6.47;;;;;;;19.47;41.54;101412.66;16124296;19;130829;-51
2022/10/09 22:18:42;;;;;;;13.50;5.82;;;;;;;19.43;41.90;101411.47;16121994;19;130213;-53
2022/10/09 22:24:04;;;;;;;12.90;6.40;;;;;;;19.41;41.61;101408.09;16127216;19;129274;-50
2022/10/09 22:29:26;;;;;;;13.38;6.30;;;;;;;19.37;41.79;101407.72;16112673;19;130054;-49
2022/10/09 22:34:50;;;;;;;10.07;6.00;;;;;;;19.33;42.09;101412.88;16114339;19;129482;-48
2022/10/09 22:40:13;;;;;;;10.50;5.32;;;;;;;19.31;41.93;101403.97;16118355;19;129693;-47
2022/10/09 22:45:37;;;;;;;12.18;5.78;;;;;;;19.29;41.98;101405.28;16123117;19;130129;-47
2022/10/09 22:51:00;;;;;;;17.23;6.40;;;;;;;19.26;41.75;101398.28;16122711;19;129644;-51
2022/10/09 22:56:31;;;;;;;12.30;5.22;;;;;;;19.22;41.86;101400.72;16121622;19;129711;-47
2022/10/09 23:01:55;;;;;;;10.60;4.97;;;;;;;19.19;41.67;101400.31;16122982;19;129499;-52
2022/10/09 23:07:17;;;;;;;5.93;4.28;;;;;;;19.18;42.00;101393.06;16121841;19;129109;-48
2022/10/09 23:12:38;;;;;;;8.38;4.22;;;;;;;19.14;41.94;101389.91;16122297;19;130870;-51
2022/10/09 23:18:01;;;;;;;11.32;4.53;;;;;;;19.13;41.80;101390.16;16121043;19;130641;-52
2022/10/09 23:23:23;;;;;;;9.18;4.30;;;;;;;19.11;42.00;101378.47;16122084;19;129477;-52
2022/10/09 23:28:52;;;;;;;7.45;3.83;;;;;;;19.08;41.68;101380.63;16120091;19;130167;-54
2022/10/09 23:34:14;;;;;;;8.85;4.15;;;;;;;19.05;41.68;101381.13;16118040;19;131410;-54
2022/10/09 23:39:36;;;;;;;11.73;3.60;;;;;;;19.02;41.71;101373.28;16120524;19;129354;-48
2022/10/09 23:44:57;;;;;;;6.05;3.25;;;;;;;19.01;41.89;101365.19;16119697;19;129568;-51
2022/10/09 23:50:19;;;;;;;5.43;2.95;;;;;;;18.99;42.10;101361.81;16117234;19;129410;-49
2022/10/09 23:55:42;;;;;;;6.20;3.28;;;;;;;18.97;41.79;101353.72;16118880;19;130200;-53
